createdAt,value
2023-03-03T06:03:00.251Z,92.82
2023-03-03T06:05:31.289Z,92.90
2023-03-03T06:08:08.244Z,92.15
2023-03-03T06:10:39.128Z,92.99
2023-03-03T06:13:16.639Z,92.31
2023-03-03T06:15:47.342Z,92.51
2023-03-03T06:18:28.360Z,92.53
2023-03-03T06:20:59.669Z,93.14
2023-03-03T06:23:38.361Z,92.88
2023-03-03T06:26:09.254Z,93.62
2023-03-03T06:28:46.325Z,92.64
2023-03-03T06:31:16.953Z,93.04
2023-03-03T06:33:56.238Z,92.62
2023-03-03T06:36:29.250Z,93.29
2023-03-03T06:38:59.555Z,93.01
2023-03-03T06:41:36.222Z,92.35
2023-03-03T06:44:06.673Z,92.75
2023-03-03T06:46:43.256Z,92.72
2023-03-03T06:49:23.235Z,92.76
2023-03-03T06:51:54.707Z,93.19
2023-03-03T06:54:38.279Z,92.09
2023-03-03T06:57:21.048Z,92.52
2023-03-03T07:00:02.294Z,93.20
2023-03-03T07:02:32.954Z,92.68
2023-03-03T07:05:20.308Z,93.27
2023-03-03T07:07:50.593Z,92.99
2023-03-03T07:10:34.252Z,92.98
2023-03-03T07:13:29.362Z,93.39
2023-03-03T07:16:12.239Z,92.11
2023-03-03T07:18:57.228Z,92.68
2023-03-03T07:21:36.589Z,93.20
2023-03-03T07:24:36.291Z,92.60
2023-03-03T07:27:22.509Z,93.14
2023-03-03T07:29:55.170Z,93.36
2023-03-03T07:32:38.292Z,92.74
2023-03-03T07:35:37.043Z,92.98
2023-03-03T07:38:39.287Z,92.43
2023-03-03T07:41:17.432Z,92.89
2023-03-03T07:44:01.274Z,92.42
2023-03-03T07:46:37.711Z,92.71
2023-03-03T07:49:31.342Z,92.89
2023-03-03T07:52:05.747Z,92.74
2023-03-03T07:54:49.334Z,92.60
2023-03-03T07:57:28.041Z,92.67
2023-03-03T08:00:11.320Z,92.58
2023-03-03T08:02:47.546Z,92.31
2023-03-03T08:05:44.373Z,92.82
2023-03-03T08:08:32.530Z,92.42
2023-03-03T08:11:16.409Z,92.64
2023-03-03T08:13:48.563Z,92.53
2023-03-03T08:16:47.296Z,92.14
2023-03-03T08:19:20.214Z,91.97
2023-03-03T08:21:57.300Z,92.28
2023-03-03T08:24:29.599Z,92.19
2023-03-03T08:27:09.376Z,92.73
2023-03-03T08:29:39.680Z,92.85
2023-03-03T08:32:17.330Z,92.46
2023-03-03T08:34:54.433Z,92.41
2023-03-03T08:37:24.666Z,92.59
2023-03-03T08:40:01.374Z,92.49
2023-03-03T08:42:34.369Z,92.34
2023-03-03T08:45:11.295Z,92.15
2023-03-03T08:47:43.238Z,92.42
2023-03-03T08:50:20.564Z,91.76
2023-03-03T08:52:51.219Z,92.02
2023-03-03T08:55:28.368Z,92.00
2023-03-03T08:58:01.392Z,91.48
2023-03-03T09:00:38.502Z,91.04
2023-03-03T09:03:09.778Z,91.38
2023-03-03T09:05:49.314Z,90.70
2023-03-03T09:08:20.128Z,91.16
2023-03-03T09:10:56.374Z,90.59
2023-03-03T09:13:35.372Z,91.46
2023-03-03T09:16:10.765Z,90.66
2023-03-03T09:18:48.328Z,89.99
2023-03-03T09:21:26.893Z,87.17
2023-03-03T09:24:06.446Z,86.78
2023-03-03T09:26:48.429Z,85.93
2023-03-03T09:29:36.383Z,85.08
2023-03-03T09:32:29.768Z,82.86
2023-03-03T09:35:07.483Z,85.45
2023-03-03T09:37:47.350Z,83.81
2023-03-03T09:40:53.505Z,76.21
2023-03-03T09:43:45.437Z,80.70
2023-03-03T09:46:33.780Z,72.65
2023-03-03T09:49:27.381Z,76.53
2023-03-03T09:52:25.468Z,72.03
2023-03-03T09:55:25.389Z,72.58
2023-03-03T09:58:24.395Z,69.08
2023-03-03T10:01:09.930Z,70.40
2023-03-03T10:04:24.637Z,65.63
2023-03-03T10:07:06.822Z,66.63
2023-03-03T10:10:16.452Z,63.16
2023-03-03T10:12:54.235Z,63.02
2023-03-03T10:15:46.558Z,62.71
2023-03-03T10:18:33.802Z,58.40
2023-03-03T10:21:21.449Z,59.94
2023-03-03T10:24:09.419Z,59.50
2023-03-03T10:27:12.420Z,56.72
2023-03-03T10:30:06.457Z,58.23
2023-03-03T10:32:50.089Z,57.35
2023-03-03T10:35:56.955Z,57.25
2023-03-03T10:38:55.407Z,57.28
2023-03-03T10:42:02.797Z,55.93
2023-03-03T10:45:03.462Z,53.44
2023-03-03T10:48:00.577Z,54.62
2023-03-03T10:50:39.384Z,54.45
2023-03-03T10:53:31.491Z,54.47
2023-03-03T10:56:27.086Z,54.51
2023-03-03T10:59:22.723Z,51.84
2023-03-03T11:02:01.162Z,52.84
2023-03-03T11:05:04.544Z,52.37
2023-03-03T11:07:43.344Z,52.07
2023-03-03T11:10:37.465Z,51.94
2023-03-03T11:13:30.669Z,52.25
2023-03-03T11:16:29.566Z,52.49
2023-03-03T11:19:13.990Z,52.57
2023-03-03T11:21:57.590Z,53.09
2023-03-03T11:24:50.527Z,51.74
2023-03-03T11:28:05.524Z,51.37
2023-03-03T11:30:57.518Z,51.35
2023-03-03T11:33:43.553Z,50.75
2023-03-03T11:36:19.710Z,49.16
2023-03-03T11:39:04.536Z,48.61
2023-03-03T11:41:40.951Z,48.16
2023-03-03T11:44:30.819Z,48.35
2023-03-03T11:47:14.560Z,47.83
2023-03-03T11:49:51.477Z,48.18
2023-03-03T11:52:38.576Z,47.93
2023-03-03T11:55:16.568Z,48.55
2023-03-03T11:58:00.554Z,48.83
2023-03-03T12:00:44.560Z,48.75
2023-03-03T12:03:32.386Z,48.45
2023-03-03T12:06:26.607Z,49.04
2023-03-03T12:09:29.613Z,48.30
2023-03-03T12:12:15.684Z,46.65
2023-03-03T12:15:02.794Z,47.30
2023-03-03T12:18:03.628Z,46.70
2023-03-03T12:20:48.984Z,48.12
2023-03-03T12:23:49.736Z,48.69
2023-03-03T12:26:28.166Z,47.98
2023-03-03T12:29:14.688Z,47.36
2023-03-03T12:31:55.225Z,47.42
2023-03-03T12:34:43.585Z,46.77
2023-03-03T12:37:33.734Z,46.37
2023-03-03T12:40:17.599Z,47.28
2023-03-03T12:43:23.662Z,46.75
2023-03-03T12:46:01.999Z,46.11
2023-03-03T12:48:50.712Z,46.16
2023-03-03T12:51:34.195Z,47.33
2023-03-03T12:54:46.640Z,46.21
2023-03-03T12:57:42.689Z,46.34
2023-03-03T13:00:46.554Z,46.66
2023-03-03T13:03:53.362Z,46.30
2023-03-03T13:06:32.561Z,46.78
2023-03-03T13:09:26.703Z,47.04
2023-03-03T13:12:44.570Z,46.84
2023-03-03T13:15:32.540Z,47.21
2023-03-03T13:18:31.044Z,47.25
2023-03-03T13:21:14.679Z,47.17
2023-03-03T13:23:54.673Z,47.34
2023-03-03T13:26:37.659Z,47.05
2023-03-03T13:29:18.711Z,46.84
2023-03-03T13:31:59.860Z,47.93
2023-03-03T13:34:46.232Z,47.25
2023-03-03T13:37:29.813Z,47.29
2023-03-03T13:40:03.718Z,47.99
2023-03-03T13:42:47.716Z,47.47
2023-03-03T13:45:28.497Z,47.34
2023-03-03T13:48:24.380Z,47.45
2023-03-03T13:50:59.302Z,48.09
2023-03-03T13:53:48.837Z,47.84
2023-03-03T13:56:42.804Z,47.77
2023-03-03T13:59:23.651Z,48.34
